Lanton, Missouri
Current Conditions -  °F | °C
As of 7:53 PM on Sunday 25 Jan 2015 (Local Time) from KUNO Reporting Station
Overcast Overcast  
Wind Chill: 27°   Ceiling: 1100
Heat Index: 36°   Visibility: 10mi
Dew Point: 32°   Wind: 15mph
Humidity: 86%   Direction: 330°NNW
Pressure: 29.92"   Gusts: 24mph
Location:  36.7256°N, 91.9123°W
Report Text: KUNO 260153Z AUTO 33013G21KT 10SM OVC011 02/00 A2992 RMK AO2 SLP138 T00220000
Loading
Personal Weather Stations






























Interactive Weather Map New forecast layout! Learn more

10-Day Weather Forecast

Advertisements
Track Severe Weather on mobile